sensor_id;sensor_type;location;lat;lon;timestamp;pressure;altitude;pressure_sealevel;temperature
48628;BMP280;34424;52.234;6.500;2023-04-15T00:01:09;61544.25;;;5.26
48628;BMP280;34424;52.234;6.500;2023-04-15T00:06:14;61575.50;;;5.16
48628;BMP280;34424;52.234;6.500;2023-04-15T00:11:21;61532.34;;;5.04
48628;BMP280;34424;52.234;6.500;2023-04-15T00:16:47;61519.03;;;5.09
48628;BMP280;34424;52.234;6.500;2023-04-15T00:21:58;61514.84;;;5.07
48628;BMP280;34424;52.234;6.500;2023-04-15T00:27:04;61514.81;;;4.85
48628;BMP280;34424;52.234;6.500;2023-04-15T00:32:06;61508.19;;;4.69
48628;BMP280;34424;52.234;6.500;2023-04-15T00:37:11;61459.91;;;4.57
48628;BMP280;34424;52.234;6.500;2023-04-15T00:42:14;61463.09;;;4.40
48628;BMP280;34424;52.234;6.500;2023-04-15T00:47:17;61410.50;;;4.22
48628;BMP280;34424;52.234;6.500;2023-04-15T00:52:22;61425.06;;;4.06
48628;BMP280;34424;52.234;6.500;2023-04-15T00:57:25;61434.53;;;3.93
48628;BMP280;34424;52.234;6.500;2023-04-15T01:02:31;61415.53;;;3.97
48628;BMP280;34424;52.234;6.500;2023-04-15T01:07:35;61425.19;;;3.91
48628;BMP280;34424;52.234;6.500;2023-04-15T01:12:38;61407.63;;;3.89
48628;BMP280;34424;52.234;6.500;2023-04-15T01:17:41;61456.28;;;3.96
48628;BMP280;34424;52.234;6.500;2023-04-15T01:22:46;61449.00;;;4.14
48628;BMP280;34424;52.234;6.500;2023-04-15T01:27:50;61439.09;;;4.10
48628;BMP280;34424;52.234;6.500;2023-04-15T01:32:53;61401.66;;;3.98
48628;BMP280;34424;52.234;6.500;2023-04-15T01:38:02;61435.25;;;4.01
48628;BMP280;34424;52.234;6.500;2023-04-15T01:43:10;61435.50;;;3.91
48628;BMP280;34424;52.234;6.500;2023-04-15T01:48:13;61400.22;;;3.82
48628;BMP280;34424;52.234;6.500;2023-04-15T01:53:16;61421.09;;;3.92
48628;BMP280;34424;52.234;6.500;2023-04-15T01:58:24;61389.78;;;3.77
48628;BMP280;34424;52.234;6.500;2023-04-15T02:03:45;61417.81;;;3.84
48628;BMP280;34424;52.234;6.500;2023-04-15T02:08:48;61410.91;;;3.78
48628;BMP280;34424;52.234;6.500;2023-04-15T02:13:52;61396.84;;;3.72
48628;BMP280;34424;52.234;6.500;2023-04-15T02:18:55;61401.28;;;3.63
48628;BMP280;34424;52.234;6.500;2023-04-15T02:23:58;61386.88;;;3.64
48628;BMP280;34424;52.234;6.500;2023-04-15T02:29:02;61398.84;;;3.68
48628;BMP280;34424;52.234;6.500;2023-04-15T02:34:06;61416.53;;;3.56
48628;BMP280;34424;52.234;6.500;2023-04-15T02:39:09;61371.53;;;3.50
48628;BMP280;34424;52.234;6.500;2023-04-15T02:44:14;61364.00;;;3.37
48628;BMP280;34424;52.234;6.500;2023-04-15T02:49:19;61346.84;;;3.31
48628;BMP280;34424;52.234;6.500;2023-04-15T02:54:23;61337.25;;;3.19
48628;BMP280;34424;52.234;6.500;2023-04-15T02:59:30;61391.81;;;3.17
48628;BMP280;34424;52.234;6.500;2023-04-15T03:04:34;61360.91;;;3.17
48628;BMP280;34424;52.234;6.500;2023-04-15T03:09:36;61342.75;;;3.12
48628;BMP280;34424;52.234;6.500;2023-04-15T03:14:42;61354.16;;;2.96
48628;BMP280;34424;52.234;6.500;2023-04-15T03:19:45;61375.00;;;3.06
48628;BMP280;34424;52.234;6.500;2023-04-15T03:24:47;61351.06;;;3.15
48628;BMP280;34424;52.234;6.500;2023-04-15T03:29:52;61330.19;;;3.05
48628;BMP280;34424;52.234;6.500;2023-04-15T03:34:55;61332.31;;;3.07
48628;BMP280;34424;52.234;6.500;2023-04-15T03:39:57;61325.91;;;3.18
48628;BMP280;34424;52.234;6.500;2023-04-15T03:45:02;61373.25;;;3.17
48628;BMP280;34424;52.234;6.500;2023-04-15T03:50:07;61391.06;;;3.09
48628;BMP280;34424;52.234;6.500;2023-04-15T03:55:10;61398.34;;;3.11
48628;BMP280;34424;52.234;6.500;2023-04-15T04:00:14;61335.56;;;3.13
48628;BMP280;34424;52.234;6.500;2023-04-15T04:05:19;61378.03;;;3.04
48628;BMP280;34424;52.234;6.500;2023-04-15T04:10:22;61334.03;;;3.14
48628;BMP280;34424;52.234;6.500;2023-04-15T04:15:26;61323.66;;;3.11
48628;BMP280;34424;52.234;6.500;2023-04-15T04:20:29;61353.44;;;3.27
48628;BMP280;34424;52.234;6.500;2023-04-15T04:25:32;61374.50;;;3.25
48628;BMP280;34424;52.234;6.500;2023-04-15T04:30:38;61345.00;;;3.19
48628;BMP280;34424;52.234;6.500;2023-04-15T04:35:41;61349.09;;;3.18
48628;BMP280;34424;52.234;6.500;2023-04-15T04:40:43;61357.78;;;3.17
48628;BMP280;34424;52.234;6.500;2023-04-15T04:45:49;61372.53;;;3.28
48628;BMP280;34424;52.234;6.500;2023-04-15T04:50:56;61359.50;;;3.23
48628;BMP280;34424;52.234;6.500;2023-04-15T04:55:59;61360.97;;;3.20
48628;BMP280;34424;52.234;6.500;2023-04-15T05:01:06;61347.38;;;3.31
48628;BMP280;34424;52.234;6.500;2023-04-15T05:06:11;61360.38;;;3.36
48628;BMP280;34424;52.234;6.500;2023-04-15T05:11:14;61366.13;;;3.39
48628;BMP280;34424;52.234;6.500;2023-04-15T05:16:20;61399.28;;;3.47
48628;BMP280;34424;52.234;6.500;2023-04-15T05:21:26;61378.88;;;3.54
48628;BMP280;34424;52.234;6.500;2023-04-15T05:26:31;61406.69;;;3.74
48628;BMP280;34424;52.234;6.500;2023-04-15T05:31:35;61430.88;;;3.92
48628;BMP280;34424;52.234;6.500;2023-04-15T05:36:38;61437.63;;;4.13
48628;BMP280;34424;52.234;6.500;2023-04-15T05:41:44;61454.03;;;4.29
48628;BMP280;34424;52.234;6.500;2023-04-15T05:46:51;61458.91;;;4.39
48628;BMP280;34424;52.234;6.500;2023-04-15T05:52:02;61476.09;;;4.45
48628;BMP280;34424;52.234;6.500;2023-04-15T05:57:06;61434.34;;;4.47
48628;BMP280;34424;52.234;6.500;2023-04-15T06:02:33;61481.41;;;4.50
48628;BMP280;34424;52.234;6.500;2023-04-15T06:07:36;61470.81;;;4.60
48628;BMP280;34424;52.234;6.500;2023-04-15T06:12:42;61490.13;;;4.69
48628;BMP280;34424;52.234;6.500;2023-04-15T06:17:48;61528.84;;;4.88
48628;BMP280;34424;52.234;6.500;2023-04-15T06:22:52;61531.66;;;5.18
48628;BMP280;34424;52.234;6.500;2023-04-15T06:27:55;61592.09;;;5.59
48628;BMP280;34424;52.234;6.500;2023-04-15T06:32:59;61652.69;;;6.44
48628;BMP280;34424;52.234;6.500;2023-04-15T06:38:04;61754.84;;;7.82
48628;BMP280;34424;52.234;6.500;2023-04-15T06:43:07;61905.66;;;9.07
48628;BMP280;34424;52.234;6.500;2023-04-15T06:48:12;61998.75;;;10.26
48628;BMP280;34424;52.234;6.500;2023-04-15T06:53:15;62007.97;;;10.42
48628;BMP280;34424;52.234;6.500;2023-04-15T06:58:19;62107.31;;;11.34
48628;BMP280;34424;52.234;6.500;2023-04-15T07:03:23;62109.91;;;11.34
48628;BMP280;34424;52.234;6.500;2023-04-15T07:08:28;62088.91;;;11.27
48628;BMP280;34424;52.234;6.500;2023-04-15T07:13:31;62095.19;;;11.28
48628;BMP280;34424;52.234;6.500;2023-04-15T07:18:36;62053.03;;;10.80
48628;BMP280;34424;52.234;6.500;2023-04-15T07:23:39;62041.97;;;10.74
48628;BMP280;34424;52.234;6.500;2023-04-15T07:28:44;62031.84;;;10.90
48628;BMP280;34424;52.234;6.500;2023-04-15T07:33:49;62061.59;;;10.91
48628;BMP280;34424;52.234;6.500;2023-04-15T07:38:51;62071.97;;;10.63
48628;BMP280;34424;52.234;6.500;2023-04-15T07:43:56;62016.59;;;10.58
48628;BMP280;34424;52.234;6.500;2023-04-15T07:49:00;62028.72;;;10.64
48628;BMP280;34424;52.234;6.500;2023-04-15T07:54:04;62076.16;;;11.15
48628;BMP280;34424;52.234;6.500;2023-04-15T07:59:08;62094.22;;;11.32
48628;BMP280;34424;52.234;6.500;2023-04-15T08:04:13;62089.59;;;11.10
48628;BMP280;34424;52.234;6.500;2023-04-15T08:09:18;62028.47;;;10.52
48628;BMP280;34424;52.234;6.500;2023-04-15T08:14:23;61975.59;;;10.16
48628;BMP280;34424;52.234;6.500;2023-04-15T08:19:28;61974.41;;;10.07
48628;BMP280;34424;52.234;6.500;2023-04-15T08:24:31;62006.81;;;10.63
48628;BMP280;34424;52.234;6.500;2023-04-15T08:29:34;62101.38;;;11.24
48628;BMP280;34424;52.234;6.500;2023-04-15T08:34:44;62146.59;;;11.67
48628;BMP280;34424;52.234;6.500;2023-04-15T08:39:55;62216.75;;;12.29
48628;BMP280;34424;52.234;6.500;2023-04-15T08:45:00;62267.78;;;13.00
48628;BMP280;34424;52.234;6.500;2023-04-15T08:50:09;62250.81;;;12.86
48628;BMP280;34424;52.234;6.500;2023-04-15T08:55:12;62262.50;;;12.98
48628;BMP280;34424;52.234;6.500;2023-04-15T09:00:17;62209.94;;;12.27
48628;BMP280;34424;52.234;6.500;2023-04-15T09:05:24;62209.56;;;12.07
48628;BMP280;34424;52.234;6.500;2023-04-15T09:10:27;62227.72;;;12.54
48628;BMP280;34424;52.234;6.500;2023-04-15T09:15:34;62123.66;;;11.43
48628;BMP280;34424;52.234;6.500;2023-04-15T09:20:41;62102.44;;;11.25
48628;BMP280;34424;52.234;6.500;2023-04-15T09:25:45;62154.34;;;11.89
48628;BMP280;34424;52.234;6.500;2023-04-15T09:30:54;62245.44;;;12.79
48628;BMP280;34424;52.234;6.500;2023-04-15T09:36:02;62263.63;;;12.74
48628;BMP280;34424;52.234;6.500;2023-04-15T09:41:17;62145.63;;;11.71
48628;BMP280;34424;52.234;6.500;2023-04-15T09:46:22;62051.06;;;11.13
48628;BMP280;34424;52.234;6.500;2023-04-15T09:51:45;62132.16;;;11.51
48628;BMP280;34424;52.234;6.500;2023-04-15T09:57:07;62203.66;;;12.26
48628;BMP280;34424;52.234;6.500;2023-04-15T10:02:12;62181.53;;;11.90
48628;BMP280;34424;52.234;6.500;2023-04-15T10:07:20;62090.22;;;11.13
48628;BMP280;34424;52.234;6.500;2023-04-15T10:12:42;62061.53;;;10.63
48628;BMP280;34424;52.234;6.500;2023-04-15T10:17:47;62042.94;;;10.70
48628;BMP280;34424;52.234;6.500;2023-04-15T10:22:53;62049.56;;;10.64
48628;BMP280;34424;52.234;6.500;2023-04-15T10:27:59;62045.00;;;10.70
48628;BMP280;34424;52.234;6.500;2023-04-15T10:33:04;62045.44;;;10.65
48628;BMP280;34424;52.234;6.500;2023-04-15T10:38:34;62077.44;;;11.01
48628;BMP280;34424;52.234;6.500;2023-04-15T10:43:37;62123.19;;;11.45
48628;BMP280;34424;52.234;6.500;2023-04-15T10:48:46;62144.22;;;11.27
48628;BMP280;34424;52.234;6.500;2023-04-15T10:53:59;62066.50;;;11.03
48628;BMP280;34424;52.234;6.500;2023-04-15T10:59:04;62071.06;;;10.95
48628;BMP280;34424;52.234;6.500;2023-04-15T11:09:52;62091.81;;;10.90
48628;BMP280;34424;52.234;6.500;2023-04-15T11:14:56;62102.13;;;11.10
48628;BMP280;34424;52.234;6.500;2023-04-15T11:19:59;62187.38;;;11.96
48628;BMP280;34424;52.234;6.500;2023-04-15T11:25:04;62202.91;;;11.88
48628;BMP280;34424;52.234;6.500;2023-04-15T11:30:17;62152.91;;;11.43
48628;BMP280;34424;52.234;6.500;2023-04-15T11:35:22;62036.28;;;10.76
48628;BMP280;34424;52.234;6.500;2023-04-15T11:40:29;62076.03;;;11.10
48628;BMP280;34424;52.234;6.500;2023-04-15T11:45:35;62152.44;;;11.20
48628;BMP280;34424;52.234;6.500;2023-04-15T11:50:39;62079.53;;;10.75
48628;BMP280;34424;52.234;6.500;2023-04-15T11:55:45;62071.22;;;10.77
48628;BMP280;34424;52.234;6.500;2023-04-15T12:00:49;62064.47;;;10.79
48628;BMP280;34424;52.234;6.500;2023-04-15T12:06:03;62076.03;;;11.10
48628;BMP280;34424;52.234;6.500;2023-04-15T12:11:13;62068.06;;;11.02
48628;BMP280;34424;52.234;6.500;2023-04-15T12:16:16;62067.88;;;10.92
48628;BMP280;34424;52.234;6.500;2023-04-15T12:21:20;62081.50;;;10.95
48628;BMP280;34424;52.234;6.500;2023-04-15T12:26:28;62037.81;;;10.75
48628;BMP280;34424;52.234;6.500;2023-04-15T12:31:32;62072.97;;;10.87
48628;BMP280;34424;52.234;6.500;2023-04-15T12:36:37;62029.25;;;10.90
48628;BMP280;34424;52.234;6.500;2023-04-15T12:41:42;62071.22;;;10.77
48628;BMP280;34424;52.234;6.500;2023-04-15T12:46:45;62084.94;;;10.86
48628;BMP280;34424;52.234;6.500;2023-04-15T12:51:52;62052.78;;;10.67
48628;BMP280;34424;52.234;6.500;2023-04-15T12:56:58;62036.38;;;10.57
48628;BMP280;34424;52.234;6.500;2023-04-15T13:02:01;62013.22;;;10.44
48628;BMP280;34424;52.234;6.500;2023-04-15T13:07:05;62047.94;;;10.35
48628;BMP280;34424;52.234;6.500;2023-04-15T13:12:09;62042.50;;;10.75
48628;BMP280;34424;52.234;6.500;2023-04-15T13:17:14;62086.50;;;10.60
48628;BMP280;34424;52.234;6.500;2023-04-15T13:22:20;62028.00;;;10.54
48628;BMP280;34424;52.234;6.500;2023-04-15T13:27:26;62005.88;;;10.18
48628;BMP280;34424;52.234;6.500;2023-04-15T13:32:29;61970.88;;;9.89
48628;BMP280;34424;52.234;6.500;2023-04-15T13:37:32;61968.34;;;9.92
48628;BMP280;34424;52.234;6.500;2023-04-15T13:42:57;61993.47;;;9.98
48628;BMP280;34424;52.234;6.500;2023-04-15T13:48:00;62013.28;;;10.22
48628;BMP280;34424;52.234;6.500;2023-04-15T13:53:03;62055.75;;;10.60
48628;BMP280;34424;52.234;6.500;2023-04-15T13:58:10;62092.22;;;10.85
48628;BMP280;34424;52.234;6.500;2023-04-15T14:03:12;62119.16;;;11.01
48628;BMP280;34424;52.234;6.500;2023-04-15T14:08:15;62021.16;;;10.77
48628;BMP280;34424;52.234;6.500;2023-04-15T14:13:19;62047.25;;;10.52
48628;BMP280;34424;52.234;6.500;2023-04-15T14:18:26;62002.19;;;10.16
48628;BMP280;34424;52.234;6.500;2023-04-15T14:23:49;61999.19;;;10.21
48628;BMP280;34424;52.234;6.500;2023-04-15T14:28:54;62021.44;;;10.15
48628;BMP280;34424;52.234;6.500;2023-04-15T14:34:20;62011.97;;;10.11
48628;BMP280;34424;52.234;6.500;2023-04-15T14:39:26;62011.88;;;10.06
48628;BMP280;34424;52.234;6.500;2023-04-15T14:44:30;61989.88;;;10.00
48628;BMP280;34424;52.234;6.500;2023-04-15T14:49:34;62010.94;;;9.88
48628;BMP280;34424;52.234;6.500;2023-04-15T14:54:37;61955.91;;;9.70
48628;BMP280;34424;52.234;6.500;2023-04-15T14:59:41;61966.09;;;9.60
48628;BMP280;34424;52.234;6.500;2023-04-15T15:04:43;61955.69;;;9.60
48628;BMP280;34424;52.234;6.500;2023-04-15T15:09:46;61944.22;;;9.59
48628;BMP280;34424;52.234;6.500;2023-04-15T15:14:50;61990.25;;;9.45
48628;BMP280;34424;52.234;6.500;2023-04-15T15:19:54;61967.47;;;9.26
48628;BMP280;34424;52.234;6.500;2023-04-15T15:24:58;61942.38;;;9.22
48628;BMP280;34424;52.234;6.500;2023-04-15T15:30:07;61953.41;;;9.25
48628;BMP280;34424;52.234;6.500;2023-04-15T15:35:10;61919.16;;;9.30
48628;BMP280;34424;52.234;6.500;2023-04-15T15:40:13;61926.47;;;9.32
48628;BMP280;34424;52.234;6.500;2023-04-15T15:45:19;61939.19;;;9.19
48628;BMP280;34424;52.234;6.500;2023-04-15T15:50:37;61867.97;;;8.96
48628;BMP280;34424;52.234;6.500;2023-04-15T15:55:41;61858.22;;;8.76
48628;BMP280;34424;52.234;6.500;2023-04-15T16:00:45;61851.84;;;8.70
48628;BMP280;34424;52.234;6.500;2023-04-15T16:05:49;61839.31;;;8.68
48628;BMP280;34424;52.234;6.500;2023-04-15T16:10:53;61868.56;;;8.51
48628;BMP280;34424;52.234;6.500;2023-04-15T16:16:00;61811.16;;;8.39
48628;BMP280;34424;52.234;6.500;2023-04-15T16:21:03;61806.78;;;8.29
48628;BMP280;34424;52.234;6.500;2023-04-15T16:26:06;61799.22;;;8.17
48628;BMP280;34424;52.234;6.500;2023-04-15T16:31:11;61833.22;;;8.05
48628;BMP280;34424;52.234;6.500;2023-04-15T16:36:13;61809.63;;;7.95
48628;BMP280;34424;52.234;6.500;2023-04-15T16:41:16;61805.88;;;7.89
48628;BMP280;34424;52.234;6.500;2023-04-15T16:46:21;61788.75;;;7.90
48628;BMP280;34424;52.234;6.500;2023-04-15T16:51:26;61807.88;;;7.86
48628;BMP280;34424;52.234;6.500;2023-04-15T16:56:29;61793.69;;;7.80
48628;BMP280;34424;52.234;6.500;2023-04-15T17:01:34;61808.88;;;7.84
48628;BMP280;34424;52.234;6.500;2023-04-15T17:06:37;61760.56;;;7.83
48628;BMP280;34424;52.234;6.500;2023-04-15T17:11:41;61775.47;;;7.77
48628;BMP280;34424;52.234;6.500;2023-04-15T17:16:48;61774.44;;;7.76
48628;BMP280;34424;52.234;6.500;2023-04-15T17:21:51;61770.28;;;7.77
48628;BMP280;34424;52.234;6.500;2023-04-15T17:26:55;61784.69;;;7.71
48628;BMP280;34424;52.234;6.500;2023-04-15T17:32:21;61792.53;;;7.74
48628;BMP280;34424;52.234;6.500;2023-04-15T17:37:24;61783.63;;;7.70
48628;BMP280;34424;52.234;6.500;2023-04-15T17:42:27;61783.09;;;7.69
48628;BMP280;34424;52.234;6.500;2023-04-15T17:47:32;61807.97;;;7.68
48628;BMP280;34424;52.234;6.500;2023-04-15T17:52:36;61771.06;;;7.65
48628;BMP280;34424;52.234;6.500;2023-04-15T17:57:41;61773.03;;;7.60
48628;BMP280;34424;52.234;6.500;2023-04-15T18:02:47;61768.06;;;7.48
48628;BMP280;34424;52.234;6.500;2023-04-15T18:07:51;61760.22;;;7.45
48628;BMP280;34424;52.234;6.500;2023-04-15T18:12:56;61750.75;;;7.38
48628;BMP280;34424;52.234;6.500;2023-04-15T18:18:05;61722.69;;;7.36
48628;BMP280;34424;52.234;6.500;2023-04-15T18:23:08;61774.50;;;7.34
48628;BMP280;34424;52.234;6.500;2023-04-15T18:28:11;61760.41;;;7.30
48628;BMP280;34424;52.234;6.500;2023-04-15T18:33:16;61719.88;;;7.26
48628;BMP280;34424;52.234;6.500;2023-04-15T18:38:19;61721.81;;;7.21
48628;BMP280;34424;52.234;6.500;2023-04-15T18:43:22;61753.03;;;7.26
48628;BMP280;34424;52.234;6.500;2023-04-15T18:48:27;61748.31;;;7.24
48628;BMP280;34424;52.234;6.500;2023-04-15T18:53:30;61739.06;;;7.27
48628;BMP280;34424;52.234;6.500;2023-04-15T18:58:33;61704.25;;;7.24
48628;BMP280;34424;52.234;6.500;2023-04-15T19:03:59;61736.94;;;7.25
48628;BMP280;34424;52.234;6.500;2023-04-15T19:09:06;61738.47;;;7.24
48628;BMP280;34424;52.234;6.500;2023-04-15T19:14:09;61728.16;;;7.27
48628;BMP280;34424;52.234;6.500;2023-04-15T19:19:15;61723.00;;;7.27
48628;BMP280;34424;52.234;6.500;2023-04-15T19:24:18;61733.25;;;7.22
48628;BMP280;34424;52.234;6.500;2023-04-15T19:29:22;61746.69;;;7.20
48628;BMP280;34424;52.234;6.500;2023-04-15T19:34:30;61754.50;;;7.22
48628;BMP280;34424;52.234;6.500;2023-04-15T19:39:33;61716.53;;;7.16
48628;BMP280;34424;52.234;6.500;2023-04-15T19:44:36;61763.69;;;7.16
48628;BMP280;34424;52.234;6.500;2023-04-15T19:49:45;61732.72;;;7.21
48628;BMP280;34424;52.234;6.500;2023-04-15T19:54:54;61766.34;;;7.19
48628;BMP280;34424;52.234;6.500;2023-04-15T19:59:57;61740.91;;;7.17
48628;BMP280;34424;52.234;6.500;2023-04-15T20:05:04;61750.81;;;7.19
48628;BMP280;34424;52.234;6.500;2023-04-15T20:10:12;61735.72;;;7.17
48628;BMP280;34424;52.234;6.500;2023-04-15T20:15:35;61738.38;;;7.19
48628;BMP280;34424;52.234;6.500;2023-04-15T20:20:39;61735.06;;;7.11
48628;BMP280;34424;52.234;6.500;2023-04-15T20:25:43;61715.00;;;7.17
48628;BMP280;34424;52.234;6.500;2023-04-15T20:30:47;61747.16;;;7.18
48628;BMP280;34424;52.234;6.500;2023-04-15T20:35:52;61739.84;;;7.16
48628;BMP280;34424;52.234;6.500;2023-04-15T20:41:14;61751.34;;;7.19
48628;BMP280;34424;52.234;6.500;2023-04-15T20:46:17;61732.72;;;7.21
48628;BMP280;34424;52.234;6.500;2023-04-15T20:51:24;61719.81;;;7.24
48628;BMP280;34424;52.234;6.500;2023-04-15T20:56:28;61729.00;;;7.18
48628;BMP280;34424;52.234;6.500;2023-04-15T21:01:31;61733.66;;;7.17
48628;BMP280;34424;52.234;6.500;2023-04-15T21:06:35;61727.94;;;7.17
48628;BMP280;34424;52.234;6.500;2023-04-15T21:11:38;61736.31;;;7.20
48628;BMP280;34424;52.234;6.500;2023-04-15T21:17:00;61735.38;;;7.24
48628;BMP280;34424;52.234;6.500;2023-04-15T21:22:13;61744.66;;;7.23
48628;BMP280;34424;52.234;6.500;2023-04-15T21:27:19;61725.00;;;7.24
48628;BMP280;34424;52.234;6.500;2023-04-15T21:32:23;61754.63;;;7.27
48628;BMP280;34424;52.234;6.500;2023-04-15T21:37:28;61761.94;;;7.29
48628;BMP280;34424;52.234;6.500;2023-04-15T21:42:32;61740.66;;;7.29
48628;BMP280;34424;52.234;6.500;2023-04-15T21:47:35;61720.41;;;7.27
48628;BMP280;34424;52.234;6.500;2023-04-15T21:53:00;61756.22;;;7.29
48628;BMP280;34424;52.234;6.500;2023-04-15T21:58:03;61750.56;;;7.31
48628;BMP280;34424;52.234;6.500;2023-04-15T22:03:07;61765.09;;;7.32
48628;BMP280;34424;52.234;6.500;2023-04-15T22:08:11;61747.03;;;7.35
48628;BMP280;34424;52.234;6.500;2023-04-15T22:13:15;61749.03;;;7.32
48628;BMP280;34424;52.234;6.500;2023-04-15T22:18:18;61753.94;;;7.42
48628;BMP280;34424;52.234;6.500;2023-04-15T22:23:22;61737.72;;;7.36
48628;BMP280;34424;52.234;6.500;2023-04-15T22:28:25;61734.13;;;7.37
48628;BMP280;34424;52.234;6.500;2023-04-15T22:33:27;61754.47;;;7.42
48628;BMP280;34424;52.234;6.500;2023-04-15T22:38:32;61789.34;;;7.48
48628;BMP280;34424;52.234;6.500;2023-04-15T22:43:35;61765.53;;;7.50
48628;BMP280;34424;52.234;6.500;2023-04-15T22:48:39;61754.69;;;7.52
48628;BMP280;34424;52.234;6.500;2023-04-15T22:53:44;61755.34;;;7.58
48628;BMP280;34424;52.234;6.500;2023-04-15T22:58:48;61755.88;;;7.58
48628;BMP280;34424;52.234;6.500;2023-04-15T23:03:51;61786.00;;;7.60
48628;BMP280;34424;52.234;6.500;2023-04-15T23:09:06;61762.66;;;7.60
48628;BMP280;34424;52.234;6.500;2023-04-15T23:14:09;61770.91;;;7.58
48628;BMP280;34424;52.234;6.500;2023-04-15T23:19:12;61789.59;;;7.58
48628;BMP280;34424;52.234;6.500;2023-04-15T23:24:18;61768.78;;;7.56
48628;BMP280;34424;52.234;6.500;2023-04-15T23:29:22;61785.38;;;7.57
48628;BMP280;34424;52.234;6.500;2023-04-15T23:34:45;61763.13;;;7.58
48628;BMP280;34424;52.234;6.500;2023-04-15T23:39:51;61778.63;;;7.55
48628;BMP280;34424;52.234;6.500;2023-04-15T23:44:56;61770.84;;;7.55
48628;BMP280;34424;52.234;6.500;2023-04-15T23:49:58;61780.19;;;7.57
48628;BMP280;34424;52.234;6.500;2023-04-15T23:55:04;61770.91;;;7.58
